Time;durP1;ratioP1;P1;durP2;ratioP2;P2;SDS_P1;SDS_P2;PMS_P1;PMS_P2;Temp;Humidity;BMP_temperature;BMP_pressure;BME280_temperature;BME280_humidity;BME280_pressure;Samples;Min_cycle;Max_cycle;Signal;HPM_P1;HPM_P2
2021/01/06 00:00:41;;;;;;;;;;;1.90;99.90;;;;;;5028395;28;19921;-73
2021/01/06 00:03:10;;;;;;;;;;;1.90;99.90;;;;;;5028878;28;19932;-74
2021/01/06 00:05:35;;;;;;;;;;;2.00;99.90;;;;;;5026559;28;19975;-75
2021/01/06 00:08:01;;;;;;;;;;;2.00;99.90;;;;;;5028716;28;19908;-74
2021/01/06 00:10:28;;;;;;;;;;;2.00;99.90;;;;;;5027146;28;19923;-74
2021/01/06 00:12:53;;;;;;;;;;;2.00;99.90;;;;;;5028160;28;19913;-74
2021/01/06 00:15:23;;;;;;;;;;;2.00;99.90;;;;;;5024629;28;19917;-73
2021/01/06 00:17:49;;;;;;;;;;;2.10;99.90;;;;;;5028218;28;19920;-73
2021/01/06 00:20:14;;;;;;;;;;;2.10;99.90;;;;;;5026299;28;20405;-73
2021/01/06 00:22:40;;;;;;;;;;;2.20;99.90;;;;;;5027767;28;19963;-73
2021/01/06 00:25:08;;;;;;;;;;;2.10;99.90;;;;;;5026595;28;19960;-73
2021/01/06 00:27:34;;;;;;;;;;;2.10;99.90;;;;;;5026947;28;19928;-74
2021/01/06 00:29:59;;;;;;;;;;;2.10;99.90;;;;;;5026174;28;20420;-74
2021/01/06 00:32:25;;;;;;;;;;;2.10;99.90;;;;;;5024666;28;19910;-73
2021/01/06 00:34:50;;;;;;;;;;;2.20;99.90;;;;;;5028071;28;20471;-73
2021/01/06 00:37:18;;;;;;;;;;;2.10;99.90;;;;;;5026248;28;20343;-74
2021/01/06 00:39:43;;;;;;;;;;;2.10;99.90;;;;;;5027643;28;20357;-73
2021/01/06 00:42:11;;;;;;;;;;;2.20;99.90;;;;;;5026943;28;19917;-73
2021/01/06 00:44:39;;;;;;;;;;;2.10;99.90;;;;;;5024218;28;20520;-73
2021/01/06 00:47:05;;;;;;;;;;;2.10;99.90;;;;;;5026391;28;19913;-74
2021/01/06 00:49:30;;;;;;;;;;;2.00;99.90;;;;;;5025970;28;20384;-73
2021/01/06 00:51:56;;;;;;;;;;;2.00;99.90;;;;;;5027829;28;19996;-74
2021/01/06 00:54:21;;;;;;;;;;;2.00;99.90;;;;;;5027978;28;19982;-73
2021/01/06 00:56:47;;;;;;;;;;;2.00;99.90;;;;;;5011426;28;19912;-73
2021/01/06 00:59:12;;;;;;;;;;;2.00;99.90;;;;;;5030795;28;19933;-73
2021/01/06 01:01:38;;;;;;;;;;;1.90;99.90;;;;;;5032776;28;20297;-73
2021/01/06 01:04:03;;;;;;;;;;;1.90;99.90;;;;;;5030742;28;19935;-73
2021/01/06 01:06:32;;;;;;;;;;;1.90;99.90;;;;;;5031519;28;20281;-72
2021/01/06 01:08:57;;;;;;;;;;;2.00;99.90;;;;;;5028644;28;19944;-72
2021/01/06 01:11:23;;;;;;;;;;;2.00;99.90;;;;;;5027381;28;19917;-74
2021/01/06 01:13:49;;;;;;;;;;;1.90;99.90;;;;;;5029431;28;20459;-73
2021/01/06 01:16:17;;;;;;;;;;;1.90;99.90;;;;;;5018255;28;20354;-73
2021/01/06 01:18:45;;;;;;;;;;;1.90;99.90;;;;;;5048422;28;20772;-73
2021/01/06 01:21:10;;;;;;;;;;;1.90;99.90;;;;;;5018164;28;20692;-74
2021/01/06 01:23:36;;;;;;;;;;;1.90;99.90;;;;;;5015092;28;19925;-73
2021/01/06 01:26:04;;;;;;;;;;;1.90;99.90;;;;;;5017787;28;19917;-73
2021/01/06 01:28:31;;;;;;;;;;;1.90;99.90;;;;;;5016727;28;20385;-73
2021/01/06 01:30:59;;;;;;;;;;;1.90;99.90;;;;;;5017071;28;19924;-74
2021/01/06 01:33:28;;;;;;;;;;;1.90;99.90;;;;;;5023801;28;19913;-73
2021/01/06 01:35:57;;;;;;;;;;;1.90;99.90;;;;;;5048551;28;19928;-73
2021/01/06 01:38:24;;;;;;;;;;;1.90;99.90;;;;;;5020539;28;21925;-73
2021/01/06 01:41:03;;;;;;;;;;;1.90;99.90;;;;;;5023171;28;19975;-73
2021/01/06 01:43:31;;;;;;;;;;;1.90;99.90;;;;;;5017460;28;19975;-73
2021/01/06 01:45:56;;;;;;;;;;;1.90;99.90;;;;;;5030375;28;19917;-73
2021/01/06 01:48:24;;;;;;;;;;;2.00;99.90;;;;;;5016529;28;19913;-73
2021/01/06 01:50:50;;;;;;;;;;;1.90;99.90;;;;;;5017867;28;19921;-73
2021/01/06 01:53:19;;;;;;;;;;;2.00;99.90;;;;;;5048966;28;19917;-73
2021/01/06 01:55:47;;;;;;;;;;;1.90;99.90;;;;;;5018734;28;19917;-73
2021/01/06 01:58:13;;;;;;;;;;;2.00;99.90;;;;;;5048325;28;19913;-72
2021/01/06 02:00:39;;;;;;;;;;;1.90;99.90;;;;;;5019703;28;19928;-74
2021/01/06 02:03:08;;;;;;;;;;;1.90;99.90;;;;;;5016438;28;19909;-73
2021/01/06 02:05:38;;;;;;;;;;;1.90;99.90;;;;;;5030949;28;20020;-73
2021/01/06 02:08:11;;;;;;;;;;;1.90;99.90;;;;;;5011068;28;19917;-74
2021/01/06 02:10:38;;;;;;;;;;;1.90;99.90;;;;;;5014445;28;19916;-73
2021/01/06 02:13:06;;;;;;;;;;;1.90;99.90;;;;;;5048577;28;19974;-73
2021/01/06 02:15:39;;;;;;;;;;;1.90;99.90;;;;;;5017047;28;19917;-73
2021/01/06 02:18:07;;;;;;;;;;;1.90;99.90;;;;;;5029873;28;20020;-74
2021/01/06 02:20:33;;;;;;;;;;;1.90;99.90;;;;;;5048233;28;19928;-73
2021/01/06 02:22:59;;;;;;;;;;;1.90;99.90;;;;;;5016401;28;19921;-71
2021/01/06 02:25:30;;;;;;;;;;;1.90;99.90;;;;;;5017085;28;19986;-72
2021/01/06 02:27:55;;;;;;;;;;;1.90;99.90;;;;;;5015816;28;19912;-73
2021/01/06 02:30:24;;;;;;;;;;;1.90;99.90;;;;;;5016985;28;19917;-73
2021/01/06 02:32:49;;;;;;;;;;;1.90;99.90;;;;;;5015856;28;19967;-74
2021/01/06 02:35:15;;;;;;;;;;;1.90;99.90;;;;;;5048370;28;21747;-73
2021/01/06 02:37:45;;;;;;;;;;;1.90;99.90;;;;;;5035665;28;19913;-72
2021/01/06 02:40:11;;;;;;;;;;;1.90;99.90;;;;;;5030474;28;19913;-73
2021/01/06 02:42:37;;;;;;;;;;;1.90;99.90;;;;;;5037861;28;19975;-73
2021/01/06 02:45:07;;;;;;;;;;;2.00;99.90;;;;;;5049689;28;19936;-73
2021/01/06 02:47:32;;;;;;;;;;;2.00;99.90;;;;;;5031025;28;19917;-73
2021/01/06 02:49:58;;;;;;;;;;;1.90;99.90;;;;;;5016043;28;19987;-74
2021/01/06 02:52:34;;;;;;;;;;;1.90;99.90;;;;;;5030927;28;20000;-73
2021/01/06 02:55:03;;;;;;;;;;;1.90;99.90;;;;;;5047318;28;19913;-72
2021/01/06 02:57:29;;;;;;;;;;;1.90;99.90;;;;;;5015122;28;19956;-73
2021/01/06 02:59:57;;;;;;;;;;;1.90;99.90;;;;;;5016696;28;20007;-72
2021/01/06 03:02:22;;;;;;;;;;;1.90;99.90;;;;;;5029126;28;19921;-73
2021/01/06 03:04:50;;;;;;;;;;;2.00;99.90;;;;;;5029555;28;19917;-73
2021/01/06 03:07:18;;;;;;;;;;;2.00;99.90;;;;;;5047363;28;19913;-74
2021/01/06 03:09:46;;;;;;;;;;;2.00;99.90;;;;;;5046616;28;19945;-73
2021/01/06 03:12:16;;;;;;;;;;;2.00;99.90;;;;;;5030905;28;19967;-73
2021/01/06 03:14:41;;;;;;;;;;;1.90;99.90;;;;;;5048018;28;19960;-73
2021/01/06 03:17:09;;;;;;;;;;;2.00;99.90;;;;;;5015226;28;20012;-73
2021/01/06 03:19:35;;;;;;;;;;;1.90;99.90;;;;;;5015047;28;19928;-73
2021/01/06 03:22:06;;;;;;;;;;;1.90;99.90;;;;;;5015848;28;19931;-73
2021/01/06 03:24:34;;;;;;;;;;;1.90;99.90;;;;;;5015361;28;20018;-73
2021/01/06 03:26:59;;;;;;;;;;;1.90;99.90;;;;;;5028351;28;19935;-73
2021/01/06 03:29:25;;;;;;;;;;;2.00;99.90;;;;;;5000836;28;19925;-73
2021/01/06 03:31:51;;;;;;;;;;;1.90;99.90;;;;;;5028505;28;19913;-73
2021/01/06 03:34:22;;;;;;;;;;;2.00;99.90;;;;;;5046472;28;19959;-73
2021/01/06 03:36:56;;;;;;;;;;;1.90;99.90;;;;;;5012134;28;20013;-73
2021/01/06 03:39:27;;;;;;;;;;;2.00;99.90;;;;;;5046508;28;20239;-73
2021/01/06 03:41:53;;;;;;;;;;;1.90;99.90;;;;;;5045011;28;19946;-73
2021/01/06 03:44:21;;;;;;;;;;;2.00;99.90;;;;;;5015350;28;20351;-73
2021/01/06 03:46:48;;;;;;;;;;;2.00;99.90;;;;;;5047648;28;19996;-73
2021/01/06 03:49:32;;;;;;;;;;;2.00;99.90;;;;;;5046375;28;19979;-73
2021/01/06 03:52:16;;;;;;;;;;;2.00;99.90;;;;;;5014785;28;19928;-73
2021/01/06 03:54:56;;;;;;;;;;;2.00;99.90;;;;;;5015394;28;19917;-71
2021/01/06 03:57:27;;;;;;;;;;;2.00;99.90;;;;;;4674507;28;10000273;-70
2021/01/06 03:59:53;;;;;;;;;;;2.10;99.90;;;;;;5042714;28;19908;-71
2021/01/06 04:02:20;;;;;;;;;;;2.10;99.90;;;;;;5027432;28;19923;-71
2021/01/06 04:04:47;;;;;;;;;;;2.10;99.90;;;;;;5027218;28;19924;-71
2021/01/06 04:07:21;;;;;;;;;;;2.10;99.90;;;;;;5059524;28;19935;-71
2021/01/06 04:09:49;;;;;;;;;;;2.10;99.90;;;;;;5039628;28;19924;-70
2021/01/06 04:12:18;;;;;;;;;;;2.00;99.90;;;;;;5026297;28;19913;-71
2021/01/06 04:14:43;;;;;;;;;;;2.00;99.90;;;;;;5027749;28;19916;-71
2021/01/06 04:17:17;;;;;;;;;;;2.10;99.90;;;;;;5059063;28;20362;-70
2021/01/06 04:19:46;;;;;;;;;;;2.00;99.90;;;;;;5025092;28;19921;-70
2021/01/06 04:22:11;;;;;;;;;;;2.00;99.90;;;;;;5041881;28;19917;-71
2021/01/06 04:24:37;;;;;;;;;;;2.10;99.90;;;;;;5019331;28;19937;-70
2021/01/06 04:27:02;;;;;;;;;;;2.10;99.90;;;;;;5014250;28;19918;-71
2021/01/06 04:29:28;;;;;;;;;;;2.10;99.90;;;;;;5013327;28;19924;-70
2021/01/06 04:31:54;;;;;;;;;;;2.10;99.90;;;;;;5019955;28;19917;-71
2021/01/06 04:34:22;;;;;;;;;;;2.10;99.90;;;;;;5012565;28;19913;-71
2021/01/06 04:36:49;;;;;;;;;;;2.10;99.90;;;;;;5013556;28;19960;-71
2021/01/06 04:39:17;;;;;;;;;;;2.10;99.90;;;;;;5015823;28;19959;-71
2021/01/06 04:42:03;;;;;;;;;;;2.10;99.90;;;;;;5013031;28;20358;-71
2021/01/06 04:44:38;;;;;;;;;;;2.10;99.90;;;;;;5045621;28;20366;-71
2021/01/06 04:47:17;;;;;;;;;;;2.10;99.90;;;;;;5028433;28;19970;-70
2021/01/06 04:50:01;;;;;;;;;;;2.20;99.90;;;;;;5015830;28;19917;-71
2021/01/06 04:52:45;;;;;;;;;;;2.20;99.90;;;;;;5013089;28;19921;-71
2021/01/06 04:55:17;;;;;;;;;;;2.20;99.90;;;;;;5013042;28;19923;-71
2021/01/06 04:58:01;;;;;;;;;;;2.20;99.90;;;;;;5013778;28;19917;-70
2021/01/06 05:00:30;;;;;;;;;;;2.20;99.90;;;;;;5012740;28;19924;-71
2021/01/06 05:03:04;;;;;;;;;;;2.20;99.90;;;;;;5044786;28;19916;-70
2021/01/06 05:05:33;;;;;;;;;;;2.20;99.90;;;;;;5026995;28;19951;-71
2021/01/06 05:08:01;;;;;;;;;;;2.20;99.90;;;;;;5027510;28;19914;-71
2021/01/06 05:10:34;;;;;;;;;;;2.20;99.90;;;;;;5028400;28;19909;-71
2021/01/06 05:13:02;;;;;;;;;;;2.20;99.90;;;;;;5045781;28;19940;-70
2021/01/06 05:15:34;;;;;;;;;;;2.20;99.90;;;;;;5046282;28;19921;-71
2021/01/06 05:17:59;;;;;;;;;;;2.30;99.90;;;;;;5016369;28;20605;-71
2021/01/06 05:20:25;;;;;;;;;;;2.20;99.90;;;;;;5014258;28;20016;-70
2021/01/06 05:22:53;;;;;;;;;;;2.30;99.90;;;;;;5045068;28;20004;-71
2021/01/06 05:25:21;;;;;;;;;;;2.20;99.90;;;;;;5031847;28;20619;-70
2021/01/06 05:27:46;;;;;;;;;;;2.30;99.90;;;;;;5014122;28;19917;-71
2021/01/06 05:30:31;;;;;;;;;;;2.30;99.90;;;;;;5013585;28;20354;-71
2021/01/06 05:33:07;;;;;;;;;;;2.30;99.90;;;;;;5019075;28;19956;-70
2021/01/06 05:35:35;;;;;;;;;;;2.30;99.90;;;;;;5045506;28;19944;-71
2021/01/06 05:38:01;;;;;;;;;;;2.30;99.90;;;;;;5045067;28;19936;-71
2021/01/06 05:40:29;;;;;;;;;;;2.30;99.90;;;;;;5013271;28;19987;-71
2021/01/06 05:42:58;;;;;;;;;;;2.30;99.90;;;;;;5044174;28;19960;-71
2021/01/06 05:45:25;;;;;;;;;;;2.30;99.90;;;;;;5046265;28;19936;-71
2021/01/06 05:47:58;;;;;;;;;;;2.30;99.90;;;;;;5048075;28;19913;-71
2021/01/06 05:50:25;;;;;;;;;;;2.20;99.90;;;;;;5013599;28;20007;-70
2021/01/06 05:52:53;;;;;;;;;;;2.20;99.90;;;;;;5016734;28;19971;-71
2021/01/06 05:55:18;;;;;;;;;;;2.30;99.90;;;;;;5048301;28;19917;-71
2021/01/06 05:58:02;;;;;;;;;;;2.30;99.90;;;;;;5038509;28;20232;-73
2021/01/06 06:00:36;;;;;;;;;;;2.30;99.90;;;;;;5017408;28;19913;-71
2021/01/06 06:03:07;;;;;;;;;;;2.30;99.90;;;;;;5038521;28;19917;-71
2021/01/06 06:05:35;;;;;;;;;;;2.30;99.90;;;;;;5015540;28;19913;-71
2021/01/06 06:08:07;;;;;;;;;;;2.20;99.90;;;;;;5017431;28;19913;-71
2021/01/06 06:10:34;;;;;;;;;;;2.20;99.90;;;;;;5015407;28;20016;-71
2021/01/06 06:13:00;;;;;;;;;;;2.20;99.90;;;;;;5015639;28;19977;-71
2021/01/06 06:15:44;;;;;;;;;;;2.20;99.90;;;;;;5016674;28;19921;-71
2021/01/06 06:18:19;;;;;;;;;;;2.20;99.90;;;;;;5015805;28;19913;-71
2021/01/06 06:20:53;;;;;;;;;;;2.20;99.90;;;;;;5014978;28;20390;-71
2021/01/06 06:23:26;;;;;;;;;;;2.20;99.90;;;;;;5015295;28;19980;-70
2021/01/06 06:26:04;;;;;;;;;;;2.30;99.90;;;;;;5048083;28;20007;-71
2021/01/06 06:28:35;;;;;;;;;;;2.20;99.90;;;;;;5031900;28;20519;-71
2021/01/06 06:31:08;;;;;;;;;;;2.20;99.90;;;;;;5047179;28;20019;-71
2021/01/06 06:33:36;;;;;;;;;;;2.20;99.90;;;;;;5047943;28;19952;-71
2021/01/06 06:36:13;;;;;;;;;;;2.20;99.90;;;;;;5030297;28;19999;-71
2021/01/06 06:38:38;;;;;;;;;;;2.20;99.90;;;;;;5015408;28;19956;-72
2021/01/06 06:41:05;;;;;;;;;;;2.20;99.90;;;;;;5015516;28;20219;-71
2021/01/06 06:43:32;;;;;;;;;;;2.20;99.90;;;;;;5014503;28;20327;-71
2021/01/06 06:46:00;;;;;;;;;;;2.20;99.90;;;;;;5015546;28;20015;-71
2021/01/06 06:48:36;;;;;;;;;;;2.20;99.90;;;;;;5017779;28;20055;-72
2021/01/06 06:51:07;;;;;;;;;;;2.20;99.90;;;;;;5047204;28;19936;-71
2021/01/06 06:53:32;;;;;;;;;;;2.20;99.90;;;;;;5028948;28;19996;-71
2021/01/06 06:56:18;;;;;;;;;;;2.10;99.90;;;;;;5014063;28;20503;-70
2021/01/06 06:59:07;;;;;;;;;;;2.10;99.90;;;;;;5011864;28;19961;-71
2021/01/06 07:01:37;;;;;;;;;;;2.10;99.90;;;;;;5019139;28;19916;-71
2021/01/06 07:04:03;;;;;;;;;;;2.10;99.90;;;;;;5026844;28;19959;-72
2021/01/06 07:06:31;;;;;;;;;;;2.10;99.90;;;;;;5017120;28;20402;-70
2021/01/06 07:08:58;;;;;;;;;;;2.10;99.90;;;;;;5016377;28;19991;-73
2021/01/06 07:11:41;;;;;;;;;;;2.20;99.90;;;;;;5029449;28;20388;-70
2021/01/06 07:14:15;;;;;;;;;;;2.10;99.90;;;;;;5015414;28;19927;-70
2021/01/06 07:16:50;;;;;;;;;;;2.20;99.90;;;;;;5024409;28;20027;-70
2021/01/06 07:19:19;;;;;;;;;;;2.20;99.90;;;;;;5024438;28;19909;-73
2021/01/06 07:21:47;;;;;;;;;;;2.20;99.90;;;;;;5027053;28;20035;-72
2021/01/06 07:24:16;;;;;;;;;;;2.20;99.90;;;;;;5026335;28;20266;-71
2021/01/06 07:27:08;;;;;;;;;;;2.20;99.90;;;;;;5024203;28;19939;-72
2021/01/06 07:30:04;;;;;;;;;;;2.20;99.90;;;;;;5023174;28;19928;-71
2021/01/06 07:32:39;;;;;;;;;;;2.20;99.90;;;;;;5033192;28;19909;-70
2021/01/06 07:35:11;;;;;;;;;;;2.30;99.90;;;;;;5021855;28;19913;-71
2021/01/06 07:37:38;;;;;;;;;;;2.30;99.90;;;;;;5023509;28;19920;-72
2021/01/06 07:40:09;;;;;;;;;;;2.30;99.90;;;;;;5024432;28;19949;-71
2021/01/06 07:42:39;;;;;;;;;;;2.30;99.90;;;;;;5054214;28;19924;-71
2021/01/06 07:45:20;;;;;;;;;;;2.30;99.90;;;;;;5023849;28;19928;-71
2021/01/06 07:47:54;;;;;;;;;;;2.20;99.90;;;;;;5039600;28;21762;-73
2021/01/06 07:50:24;;;;;;;;;;;2.30;99.90;;;;;;5024414;28;19920;-73
2021/01/06 07:52:50;;;;;;;;;;;2.30;99.90;;;;;;5022307;28;19994;-72
2021/01/06 07:55:30;;;;;;;;;;;2.30;99.90;;;;;;5024264;28;19925;-73
2021/01/06 07:57:56;;;;;;;;;;;2.30;99.90;;;;;;5024007;28;19935;-72
2021/01/06 08:00:27;;;;;;;;;;;2.30;99.90;;;;;;5054172;28;20862;-70
2021/01/06 08:02:59;;;;;;;;;;;2.30;99.90;;;;;;5052592;28;20496;-72
2021/01/06 08:05:30;;;;;;;;;;;2.30;99.90;;;;;;5024335;28;19920;-72
2021/01/06 08:08:05;;;;;;;;;;;2.40;99.90;;;;;;5055927;28;19995;-70
2021/01/06 08:10:30;;;;;;;;;;;2.40;99.90;;;;;;5022777;28;20837;-71
2021/01/06 08:13:15;;;;;;;;;;;2.40;99.90;;;;;;5036136;28;19914;-70
2021/01/06 08:15:42;;;;;;;;;;;2.40;99.90;;;;;;5022423;28;19916;-72
2021/01/06 08:18:10;;;;;;;;;;;2.40;99.90;;;;;;5053758;28;20242;-70
2021/01/06 08:20:55;;;;;;;;;;;2.40;99.90;;;;;;5023508;28;19909;-72
2021/01/06 08:23:28;;;;;;;;;;;2.40;99.90;;;;;;5022790;28;20366;-69
2021/01/06 08:25:58;;;;;;;;;;;2.40;99.90;;;;;;5023636;28;20258;-72
2021/01/06 08:28:25;;;;;;;;;;;2.40;99.90;;;;;;5024217;28;20010;-71
2021/01/06 08:30:50;;;;;;;;;;;2.40;99.90;;;;;;5021599;28;20279;-70
2021/01/06 08:33:18;;;;;;;;;;;2.40;99.90;;;;;;5022833;28;20051;-72
2021/01/06 08:35:44;;;;;;;;;;;2.40;99.90;;;;;;5052652;28;19992;-71
2021/01/06 08:38:25;;;;;;;;;;;2.40;99.90;;;;;;5021209;28;19909;-72
2021/01/06 08:40:50;;;;;;;;;;;2.40;99.90;;;;;;5020965;28;19990;-71
2021/01/06 08:43:16;;;;;;;;;;;2.40;99.90;;;;;;5021991;28;19913;-72
2021/01/06 08:45:54;;;;;;;;;;;2.40;99.90;;;;;;5020560;28;20555;-70
2021/01/06 08:48:19;;;;;;;;;;;2.40;99.90;;;;;;5021252;28;20333;-72
2021/01/06 08:50:45;;;;;;;;;;;2.40;99.90;;;;;;5022102;28;19913;-72
2021/01/06 08:53:16;;;;;;;;;;;2.40;99.90;;;;;;5054887;28;20058;-72
2021/01/06 08:55:41;;;;;;;;;;;2.40;99.90;;;;;;5051689;28;20272;-72
2021/01/06 08:58:10;;;;;;;;;;;2.40;99.90;;;;;;5034853;28;20657;-72
2021/01/06 09:00:54;;;;;;;;;;;2.50;99.90;;;;;;5052920;28;19928;-72
2021/01/06 09:03:22;;;;;;;;;;;2.40;99.90;;;;;;5021286;28;19909;-70
2021/01/06 09:06:06;;;;;;;;;;;2.50;99.90;;;;;;5021485;28;19918;-72
2021/01/06 09:08:34;;;;;;;;;;;2.50;99.90;;;;;;5023548;28;20313;-72
2021/01/06 09:11:00;;;;;;;;;;;2.50;99.90;;;;;;5021754;28;19917;-72
2021/01/06 09:13:46;;;;;;;;;;;2.50;99.90;;;;;;5021801;28;20500;-72
2021/01/06 09:16:16;;;;;;;;;;;2.50;99.90;;;;;;5020350;28;20478;-72
2021/01/06 09:18:43;;;;;;;;;;;2.50;99.90;;;;;;5054493;28;20059;-72
2021/01/06 09:21:09;;;;;;;;;;;2.50;99.90;;;;;;5039210;28;20251;-73
2021/01/06 09:23:35;;;;;;;;;;;2.50;99.90;;;;;;5024253;28;19917;-72
2021/01/06 09:26:02;;;;;;;;;;;2.50;99.90;;;;;;5025586;28;19916;-72
2021/01/06 09:28:29;;;;;;;;;;;2.50;99.90;;;;;;5042652;28;19920;-73
2021/01/06 09:30:54;;;;;;;;;;;2.60;99.90;;;;;;5011142;28;19924;-72
2021/01/06 09:33:27;;;;;;;;;;;2.60;99.90;;;;;;5024999;28;19956;-72
2021/01/06 09:35:53;;;;;;;;;;;2.60;99.90;;;;;;5021799;28;19909;-72
2021/01/06 09:38:24;;;;;;;;;;;2.60;99.90;;;;;;5024910;28;19928;-72
2021/01/06 09:40:52;;;;;;;;;;;2.70;99.90;;;;;;5036938;28;19960;-72
2021/01/06 09:43:24;;;;;;;;;;;2.70;99.90;;;;;;5024677;28;19917;-72
2021/01/06 09:45:50;;;;;;;;;;;2.70;99.90;;;;;;5024376;28;20395;-73
2021/01/06 09:48:15;;;;;;;;;;;2.70;99.90;;;;;;5057422;28;19996;-72
2021/01/06 09:50:41;;;;;;;;;;;2.70;99.90;;;;;;5039190;28;20013;-72
2021/01/06 09:53:08;;;;;;;;;;;2.80;99.90;;;;;;5024605;28;19962;-73
2021/01/06 09:55:34;;;;;;;;;;;2.80;99.90;;;;;;5056538;28;20071;-72
2021/01/06 09:58:05;;;;;;;;;;;2.80;99.90;;;;;;5041241;28;20012;-72
2021/01/06 10:00:39;;;;;;;;;;;2.80;99.90;;;;;;5056372;28;19909;-72
2021/01/06 10:03:05;;;;;;;;;;;2.80;99.90;;;;;;5057130;28;19912;-73
2021/01/06 10:05:56;;;;;;;;;;;2.80;99.90;;;;;;5025178;28;19928;-72
2021/01/06 10:08:22;;;;;;;;;;;2.80;99.90;;;;;;5003276;28;20558;-72
2021/01/06 10:10:47;;;;;;;;;;;2.80;99.90;;;;;;5025476;28;19979;-72
2021/01/06 10:13:39;;;;;;;;;;;2.80;99.90;;;;;;5042930;28;19924;-72
2021/01/06 10:16:34;;;;;;;;;;;2.80;99.90;;;;;;5023228;28;19944;-73
2021/01/06 10:19:00;;;;;;;;;;;2.80;99.90;;;;;;5012531;28;19909;-72
2021/01/06 10:21:30;;;;;;;;;;;2.90;99.90;;;;;;5024861;28;19913;-73
2021/01/06 10:24:01;;;;;;;;;;;2.90;99.90;;;;;;5057271;28;19925;-73
2021/01/06 10:26:27;;;;;;;;;;;2.90;99.90;;;;;;5024071;28;19919;-72
2021/01/06 10:28:55;;;;;;;;;;;2.90;99.90;;;;;;5039176;28;19909;-72
2021/01/06 10:31:20;;;;;;;;;;;2.90;99.90;;;;;;5038325;28;19916;-73
2021/01/06 10:34:00;;;;;;;;;;;2.90;99.90;;;;;;5025041;28;19940;-73
2021/01/06 10:36:44;;;;;;;;;;;2.90;99.90;;;;;;5023908;28;19944;-72
2021/01/06 10:39:18;;;;;;;;;;;2.90;99.90;;;;;;5024520;28;19945;-73
2021/01/06 10:41:46;;;;;;;;;;;2.90;99.90;;;;;;5058828;28;19916;-72
2021/01/06 10:44:34;;;;;;;;;;;3.00;99.90;;;;;;5023708;28;20376;-73
2021/01/06 10:47:21;;;;;;;;;;;3.00;99.90;;;;;;5024743;28;20062;-72
2021/01/06 10:49:48;;;;;;;;;;;3.00;99.90;;;;;;5039935;28;19916;-72
2021/01/06 10:52:21;;;;;;;;;;;3.00;99.90;;;;;;5058726;28;19917;-72
2021/01/06 10:54:49;;;;;;;;;;;3.00;99.90;;;;;;5025440;28;19909;-72
2021/01/06 10:57:15;;;;;;;;;;;3.00;99.90;;;;;;5023473;28;20001;-72
2021/01/06 11:00:01;;;;;;;;;;;3.00;99.90;;;;;;5023596;28;20012;-72
2021/01/06 11:02:28;;;;;;;;;;;3.10;99.90;;;;;;5015144;28;19940;-72
2021/01/06 11:05:07;;;;;;;;;;;3.10;99.90;;;;;;5040534;28;19943;-72
2021/01/06 11:07:41;;;;;;;;;;;3.10;99.90;;;;;;5056065;28;20020;-72
2021/01/06 11:10:10;;;;;;;;;;;3.10;99.90;;;;;;5026050;28;20008;-72
2021/01/06 11:12:46;;;;;;;;;;;3.10;99.90;;;;;;5022350;28;19967;-72
2021/01/06 11:15:32;;;;;;;;;;;3.10;99.90;;;;;;5054924;28;20361;-72
2021/01/06 11:18:23;;;;;;;;;;;3.10;99.90;;;;;;5024314;28;19912;-72
2021/01/06 11:21:11;;;;;;;;;;;3.20;99.90;;;;;;5016533;28;19924;-73
2021/01/06 11:23:42;;;;;;;;;;;3.10;99.90;;;;;;5019863;28;19913;-72
2021/01/06 11:26:32;;;;;;;;;;;3.10;99.90;;;;;;5021512;28;19917;-73
2021/01/06 11:29:06;;;;;;;;;;;3.10;99.90;;;;;;5039242;28;20004;-73
2021/01/06 11:31:32;;;;;;;;;;;3.10;99.90;;;;;;5021771;28;19916;-72
2021/01/06 11:34:07;;;;;;;;;;;3.20;99.90;;;;;;5023615;28;20349;-72
2021/01/06 11:36:35;;;;;;;;;;;3.10;99.90;;;;;;5022442;28;19925;-72
2021/01/06 11:39:01;;;;;;;;;;;3.10;99.90;;;;;;5023078;28;19966;-73
2021/01/06 11:41:27;;;;;;;;;;;3.20;99.90;;;;;;5054043;28;19917;-73
2021/01/06 11:44:14;;;;;;;;;;;3.20;99.90;;;;;;5024990;28;19913;-73
2021/01/06 11:46:43;;;;;;;;;;;3.10;99.90;;;;;;5037745;28;19923;-73
2021/01/06 11:49:14;;;;;;;;;;;3.10;99.90;;;;;;5025133;28;20337;-77
2021/01/06 11:51:39;;;;;;;;;;;3.20;99.90;;;;;;5024674;28;19917;-72
2021/01/06 11:54:17;;;;;;;;;;;3.20;99.90;;;;;;5023529;28;19897;-72
2021/01/06 11:56:49;;;;;;;;;;;3.30;99.90;;;;;;5023835;28;19948;-71
2021/01/06 11:59:22;;;;;;;;;;;3.30;99.90;;;;;;4674427;28;9999906;-71
2021/01/06 12:02:09;;;;;;;;;;;3.30;99.90;;;;;;5021695;28;19920;-71
2021/01/06 12:04:56;;;;;;;;;;;3.30;99.90;;;;;;5023559;28;19909;-71
2021/01/06 12:07:35;;;;;;;;;;;3.40;99.90;;;;;;5023073;28;19913;-71
2021/01/06 12:10:20;;;;;;;;;;;3.30;99.90;;;;;;5023685;28;19955;-71
2021/01/06 12:12:49;;;;;;;;;;;3.30;99.90;;;;;;5024886;28;19939;-71
2021/01/06 12:15:24;;;;;;;;;;;3.40;99.90;;;;;;5038130;28;19909;-71
2021/01/06 12:17:52;;;;;;;;;;;3.40;99.90;;;;;;5020270;28;19917;-71
2021/01/06 12:20:22;;;;;;;;;;;3.40;99.90;;;;;;5023858;28;19917;-71
2021/01/06 12:23:06;;;;;;;;;;;3.50;99.90;;;;;;5022440;28;20000;-71
2021/01/06 12:25:45;;;;;;;;;;;3.40;99.90;;;;;;5038864;28;19970;-71
2021/01/06 12:28:23;;;;;;;;;;;3.50;99.90;;;;;;5024057;28;19910;-71
2021/01/06 12:31:05;;;;;;;;;;;3.40;99.90;;;;;;5024859;28;19913;-71
2021/01/06 12:33:32;;;;;;;;;;;3.50;99.90;;;;;;5022422;28;19910;-71
2021/01/06 12:36:05;;;;;;;;;;;3.50;99.90;;;;;;5009454;28;19912;-71
2021/01/06 12:38:33;;;;;;;;;;;3.50;99.90;;;;;;5054624;28;19992;-71
2021/01/06 12:41:04;;;;;;;;;;;3.50;99.90;;;;;;5021479;28;19917;-71
2021/01/06 12:43:35;;;;;;;;;;;3.50;99.90;;;;;;5022579;28;20475;-71
2021/01/06 12:46:13;;;;;;;;;;;3.50;99.90;;;;;;5024044;28;19943;-71
2021/01/06 12:48:51;;;;;;;;;;;3.60;99.90;;;;;;5055308;28;20354;-71
2021/01/06 12:51:19;;;;;;;;;;;3.60;99.90;;;;;;5037769;28;19913;-71
2021/01/06 12:53:52;;;;;;;;;;;3.60;99.90;;;;;;5055155;28;19917;-71
2021/01/06 12:56:37;;;;;;;;;;;3.60;99.90;;;;;;5059630;28;20363;-71
2021/01/06 12:59:06;;;;;;;;;;;3.60;99.90;;;;;;5026710;28;20291;-71
2021/01/06 13:01:34;;;;;;;;;;;3.70;99.90;;;;;;5026835;28;19920;-71
2021/01/06 13:04:05;;;;;;;;;;;3.70;99.90;;;;;;5025376;28;19957;-71
2021/01/06 13:06:30;;;;;;;;;;;3.70;99.90;;;;;;5027705;28;19921;-71
2021/01/06 13:08:56;;;;;;;;;;;3.70;99.90;;;;;;5028021;28;19909;-71
2021/01/06 13:11:36;;;;;;;;;;;3.70;99.90;;;;;;5026893;28;19924;-71
2021/01/06 13:14:22;;;;;;;;;;;3.80;99.90;;;;;;5026624;28;20306;-71
2021/01/06 13:16:58;;;;;;;;;;;3.80;99.90;;;;;;4995257;28;20005;-71
2021/01/06 13:19:50;;;;;;;;;;;3.90;99.90;;;;;;5039405;28;20450;-71
2021/01/06 13:22:25;;;;;;;;;;;3.90;99.90;;;;;;5024586;28;19921;-71
2021/01/06 13:25:11;;;;;;;;;;;3.80;99.90;;;;;;5026833;28;20588;-71
2021/01/06 13:27:39;;;;;;;;;;;3.90;99.90;;;;;;5026314;28;19959;-71
2021/01/06 13:30:14;;;;;;;;;;;3.80;99.90;;;;;;5025149;28;19920;-71
2021/01/06 13:32:54;;;;;;;;;;;3.80;99.90;;;;;;5025671;28;20519;-71
2021/01/06 13:35:22;;;;;;;;;;;3.80;99.90;;;;;;5030297;28;19952;-71
2021/01/06 13:37:48;;;;;;;;;;;3.80;99.90;;;;;;5025103;28;19924;-71
2021/01/06 13:40:18;;;;;;;;;;;3.80;99.90;;;;;;5058235;28;19909;-70
2021/01/06 13:42:43;;;;;;;;;;;3.80;99.90;;;;;;5057333;28;20355;-71
2021/01/06 13:45:12;;;;;;;;;;;3.80;99.90;;;;;;5026837;28;19917;-71
2021/01/06 13:47:42;;;;;;;;;;;3.80;99.90;;;;;;5027942;28;19917;-71
2021/01/06 13:50:13;;;;;;;;;;;3.80;99.90;;;;;;5028342;28;19909;-71
2021/01/06 13:52:40;;;;;;;;;;;3.80;99.90;;;;;;5039268;28;19913;-71
2021/01/06 13:55:12;;;;;;;;;;;3.90;99.90;;;;;;5058330;28;20517;-71
2021/01/06 13:57:37;;;;;;;;;;;3.90;99.90;;;;;;5025387;28;19909;-71
2021/01/06 14:00:22;;;;;;;;;;;3.90;99.90;;;;;;5036365;28;20255;-71
2021/01/06 14:02:57;;;;;;;;;;;3.90;99.90;;;;;;5053681;28;19932;-71
2021/01/06 14:05:35;;;;;;;;;;;3.90;99.90;;;;;;5024881;28;19909;-71
2021/01/06 14:08:06;;;;;;;;;;;3.90;99.90;;;;;;5025132;28;19910;-71
2021/01/06 14:10:50;;;;;;;;;;;3.90;99.90;;;;;;5026192;28;19916;-71
2021/01/06 14:13:34;;;;;;;;;;;3.80;99.90;;;;;;5025897;28;19909;-71
2021/01/06 14:16:18;;;;;;;;;;;3.80;99.90;;;;;;5025418;28;19913;-70
2021/01/06 14:18:46;;;;;;;;;;;3.80;99.90;;;;;;5023940;28;19921;-71
2021/01/06 14:21:15;;;;;;;;;;;3.80;99.90;;;;;;5040235;28;19959;-71
2021/01/06 14:23:43;;;;;;;;;;;3.80;99.90;;;;;;5025696;28;19959;-71
2021/01/06 14:26:21;;;;;;;;;;;3.80;99.90;;;;;;5024389;28;19968;-71
2021/01/06 14:29:05;;;;;;;;;;;3.80;99.90;;;;;;5025408;28;19920;-71
2021/01/06 14:31:34;;;;;;;;;;;3.80;99.90;;;;;;5024248;28;19909;-71
2021/01/06 14:34:07;;;;;;;;;;;3.80;99.90;;;;;;5057613;28;19913;-71
2021/01/06 14:36:36;;;;;;;;;;;3.80;99.90;;;;;;5024551;28;19924;-71
2021/01/06 14:39:05;;;;;;;;;;;3.80;99.90;;;;;;5056118;28;19909;-71
2021/01/06 14:41:34;;;;;;;;;;;3.90;99.90;;;;;;5022750;28;19917;-71
2021/01/06 14:44:09;;;;;;;;;;;3.90;99.90;;;;;;5023416;28;19908;-71
2021/01/06 14:46:49;;;;;;;;;;;3.90;99.90;;;;;;5024121;28;20364;-74
2021/01/06 14:49:17;;;;;;;;;;;3.90;99.90;;;;;;5026999;28;20407;-70
2021/01/06 14:51:49;;;;;;;;;;;3.90;99.90;;;;;;5026475;28;19917;-71
2021/01/06 14:54:17;;;;;;;;;;;4.00;99.90;;;;;;5057284;28;19909;-71